createdAt,value
2023-12-05T00:03:01.913Z,16.23
2023-12-05T00:06:05.654Z,15.80
2023-12-05T00:09:12.631Z,17.33
2023-12-05T00:12:15.786Z,18.05
2023-12-05T00:15:19.242Z,17.67
2023-12-05T00:18:24.909Z,17.20
2023-12-05T00:21:28.378Z,16.02
2023-12-05T00:24:35.363Z,19.23
2023-12-05T00:27:38.607Z,15.45
2023-12-05T00:30:41.761Z,17.65
2023-12-05T00:33:45.182Z,16.43
2023-12-05T00:36:49.280Z,19.08
2023-12-05T00:39:54.223Z,16.02
2023-12-05T00:42:57.448Z,18.30
2023-12-05T00:46:00.726Z,18.00
2023-12-05T00:49:06.193Z,18.97
2023-12-05T00:52:09.494Z,16.33
2023-12-05T00:55:13.997Z,15.40
2023-12-05T00:58:17.168Z,16.63
2023-12-05T01:01:21.017Z,18.40
2023-12-05T01:04:24.609Z,16.13
2023-12-05T01:07:31.136Z,19.90
2023-12-05T01:10:35.981Z,17.08
2023-12-05T01:13:39.722Z,18.45
2023-12-05T01:16:44.906Z,17.15
2023-12-05T01:19:48.050Z,17.23
2023-12-05T01:22:51.502Z,17.00
2023-12-05T01:25:56.244Z,17.15
2023-12-05T01:28:59.412Z,16.50
2023-12-05T01:32:02.507Z,16.73
2023-12-05T01:35:06.251Z,17.47
2023-12-05T01:38:09.513Z,17.17
2023-12-05T01:41:14.134Z,17.55
2023-12-05T01:44:17.281Z,16.65
2023-12-05T01:47:20.724Z,16.98
2023-12-05T01:50:27.784Z,19.90
2023-12-05T01:53:33.072Z,18.17
2023-12-05T01:56:37.820Z,20.25
2023-12-05T01:59:41.444Z,16.48
2023-12-05T02:02:44.650Z,25.60
2023-12-05T02:05:49.602Z,18.10
2023-12-05T02:08:53.885Z,19.98
2023-12-05T02:11:58.412Z,21.52
2023-12-05T02:15:02.155Z,18.85
2023-12-05T02:18:15.407Z,19.52
2023-12-05T02:21:25.887Z,19.17
2023-12-05T02:24:43.777Z,17.80
2023-12-05T02:27:49.331Z,21.15
2023-12-05T02:30:53.020Z,21.05
2023-12-05T02:33:56.640Z,21.40
2023-12-05T02:37:08.141Z,20.33
2023-12-05T02:40:17.670Z,20.30
2023-12-05T02:43:30.472Z,17.70
2023-12-05T02:46:35.463Z,22.83
2023-12-05T02:49:38.865Z,19.73
2023-12-05T02:52:42.116Z,18.37
2023-12-05T02:55:45.353Z,19.30
2023-12-05T02:58:50.033Z,19.55
2023-12-05T03:01:53.239Z,19.30
2023-12-05T03:04:56.470Z,16.98
2023-12-05T03:08:01.190Z,21.63
2023-12-05T03:11:09.545Z,23.80
2023-12-05T03:14:15.699Z,18.23
2023-12-05T03:17:18.864Z,22.58
2023-12-05T03:20:22.338Z,20.50
2023-12-05T03:23:25.590Z,19.40
2023-12-05T03:26:28.897Z,22.00
2023-12-05T03:29:33.400Z,20.33
2023-12-05T03:32:36.723Z,20.20
2023-12-05T03:35:39.897Z,19.58
2023-12-05T03:38:43.204Z,22.17
2023-12-05T03:41:47.424Z,21.48
2023-12-05T03:44:52.052Z,20.35
2023-12-05T03:47:55.409Z,21.98
2023-12-05T03:50:58.700Z,20.23
2023-12-05T03:54:04.897Z,20.37
2023-12-05T03:57:08.051Z,17.52
2023-12-05T04:00:16.346Z,21.77
2023-12-05T04:03:22.391Z,20.25
2023-12-05T04:06:26.723Z,25.13
2023-12-05T04:09:30.109Z,22.67
2023-12-05T04:12:33.297Z,19.95
2023-12-05T04:15:38.043Z,24.08
2023-12-05T04:18:41.770Z,22.33
2023-12-05T04:21:45.012Z,21.08
2023-12-05T04:24:48.189Z,24.93
2023-12-05T04:27:51.497Z,22.63
2023-12-05T04:30:56.061Z,24.95
2023-12-05T04:33:59.408Z,19.30
2023-12-05T04:37:03.238Z,23.10
2023-12-05T04:40:09.118Z,22.97
2023-12-05T04:43:12.284Z,21.35
2023-12-05T04:46:16.786Z,21.08
2023-12-05T04:49:20.356Z,20.48
2023-12-05T04:52:23.629Z,20.55
2023-12-05T04:55:27.084Z,25.00
2023-12-05T04:58:30.555Z,22.40
2023-12-05T05:01:35.149Z,22.35
2023-12-05T05:04:38.572Z,22.30
2023-12-05T05:07:42.072Z,20.33
2023-12-05T05:10:45.350Z,21.43
2023-12-05T05:13:53.171Z,23.73
2023-12-05T05:17:02.697Z,23.30
2023-12-05T05:20:07.210Z,21.52
2023-12-05T05:23:13.008Z,21.70
2023-12-05T05:26:16.333Z,23.80
2023-12-05T05:29:19.673Z,25.95
2023-12-05T05:32:25.047Z,27.17
2023-12-05T05:35:31.243Z,21.60
2023-12-05T05:38:37.441Z,22.67
2023-12-05T05:41:46.635Z,22.10
2023-12-05T05:44:50.076Z,24.02
2023-12-05T05:47:55.055Z,22.30
2023-12-05T05:50:58.620Z,23.83
2023-12-05T05:54:02.131Z,22.48
2023-12-05T05:57:05.942Z,24.00
2023-12-05T06:00:13.184Z,23.20
2023-12-05T06:03:24.407Z,22.65
2023-12-05T06:06:27.727Z,23.95
2023-12-05T06:09:31.255Z,21.75
2023-12-05T06:12:34.602Z,23.17
2023-12-05T06:16:31.407Z,18.92
2023-12-05T06:19:37.987Z,23.10
2023-12-05T06:26:35.826Z,24.20
2023-12-05T06:29:55.121Z,24.53
2023-12-05T06:33:46.568Z,24.85
2023-12-05T06:49:44.804Z,20.17
2023-12-05T07:02:30.320Z,21.55
2023-12-05T07:06:10.868Z,28.00
2023-12-05T07:09:34.359Z,23.10
2023-12-05T07:12:41.152Z,22.27
2023-12-05T07:15:47.276Z,24.23
2023-12-05T07:28:06.123Z,22.57
2023-12-05T07:31:10.131Z,24.13
2023-12-05T07:34:18.577Z,23.02
2023-12-05T07:37:24.137Z,25.50
2023-12-05T07:40:36.693Z,26.00
2023-12-05T07:43:39.882Z,23.63
2023-12-05T07:46:46.634Z,22.42
2023-12-05T07:49:52.215Z,23.02
2023-12-05T07:52:55.554Z,26.42
2023-12-05T07:56:04.906Z,27.35
2023-12-05T07:59:08.603Z,28.50
2023-12-05T08:02:12.134Z,22.40
2023-12-05T08:05:21.665Z,25.90
2023-12-05T08:09:03.043Z,24.15
2023-12-05T08:12:13.312Z,24.52
2023-12-05T08:15:17.874Z,24.17
2023-12-05T08:24:19.304Z,26.92
2023-12-05T08:28:31.070Z,29.75
2023-12-05T08:32:29.458Z,25.95
2023-12-05T08:35:56.404Z,28.60
2023-12-05T08:43:47.608Z,25.00
2023-12-05T08:47:54.526Z,22.92
2023-12-05T08:52:05.073Z,26.67
2023-12-05T09:08:07.937Z,22.98
2023-12-05T09:11:32.554Z,26.13
2023-12-05T09:14:37.604Z,27.50
2023-12-05T09:17:41.881Z,25.17
2023-12-05T09:21:13.476Z,24.23
2023-12-05T09:28:08.614Z,24.67
2023-12-05T09:31:15.730Z,24.63
2023-12-05T09:34:20.783Z,29.42
2023-12-05T09:43:30.069Z,21.40
2023-12-05T09:47:49.245Z,23.85
2023-12-05T09:51:10.522Z,24.17
2023-12-05T09:54:54.731Z,23.77
2023-12-05T09:58:12.372Z,21.45
2023-12-05T10:01:20.888Z,24.13
2023-12-05T10:04:51.908Z,24.23
2023-12-05T10:13:37.958Z,21.63
2023-12-05T10:21:25.423Z,44.47
2023-12-05T10:25:24.287Z,21.75
2023-12-05T10:38:16.231Z,24.27
2023-12-05T10:41:55.624Z,25.75
2023-12-05T10:45:07.146Z,26.35
2023-12-05T10:52:10.197Z,22.38
2023-12-05T10:55:15.382Z,25.05
2023-12-05T10:58:20.484Z,25.45
2023-12-05T11:01:28.984Z,24.63
2023-12-05T11:22:28.541Z,21.50
2023-12-05T11:25:48.381Z,24.00
2023-12-05T11:30:21.451Z,24.10
2023-12-05T11:33:44.426Z,24.75
2023-12-05T11:37:02.319Z,23.92
2023-12-05T11:40:11.946Z,24.80
2023-12-05T11:43:17.982Z,22.47
2023-12-05T11:46:22.513Z,25.98
2023-12-05T11:49:55.732Z,23.48
2023-12-05T11:52:59.594Z,23.48
2023-12-05T11:56:07.649Z,24.25
2023-12-05T11:59:33.258Z,25.60
2023-12-05T12:02:45.761Z,21.00
2023-12-05T12:05:55.105Z,20.95
2023-12-05T12:09:00.255Z,20.83
2023-12-05T12:12:05.726Z,23.55
2023-12-05T12:15:21.220Z,22.47
2023-12-05T12:18:36.550Z,22.90
2023-12-05T12:21:48.854Z,22.05
2023-12-05T12:24:52.854Z,27.10
2023-12-05T12:27:58.133Z,27.95
2023-12-05T12:31:05.353Z,24.53
2023-12-05T12:34:26.117Z,27.05
2023-12-05T12:37:32.076Z,23.45
2023-12-05T12:41:47.618Z,23.58
2023-12-05T12:45:14.089Z,29.83
2023-12-05T12:48:18.495Z,23.50
2023-12-05T12:51:22.134Z,21.13
2023-12-05T12:54:30.670Z,22.58
2023-12-05T12:57:36.905Z,27.05
2023-12-05T13:01:08.244Z,22.08
2023-12-05T13:04:13.118Z,24.47
2023-12-05T13:07:30.350Z,22.40
2023-12-05T13:10:34.427Z,23.08
2023-12-05T13:13:40.272Z,20.27
2023-12-05T13:16:53.005Z,25.00
2023-12-05T13:20:13.992Z,21.77
2023-12-05T13:23:27.652Z,23.60
2023-12-05T13:26:36.878Z,24.95
2023-12-05T13:29:52.274Z,29.55
2023-12-05T13:33:01.921Z,27.15
2023-12-05T13:36:06.230Z,23.07
2023-12-05T13:39:13.383Z,39.97
2023-12-05T13:42:23.069Z,24.95
2023-12-05T13:45:29.581Z,26.35
2023-12-05T13:48:49.417Z,24.83
2023-12-05T13:51:52.940Z,26.37
2023-12-05T13:54:59.397Z,27.02
2023-12-05T13:58:14.382Z,33.70
2023-12-05T14:01:18.060Z,30.60
2023-12-05T14:04:24.770Z,27.85
2023-12-05T14:07:28.390Z,21.67
2023-12-05T14:10:31.664Z,25.40
2023-12-05T14:13:37.912Z,27.27
2023-12-05T14:16:49.810Z,26.75
2023-12-05T14:19:54.569Z,27.30
2023-12-05T14:22:58.580Z,26.00
2023-12-05T14:26:05.230Z,37.47
2023-12-05T14:29:13.079Z,24.38
2023-12-05T14:32:16.980Z,36.00
2023-12-05T14:40:16.301Z,26.07
2023-12-05T14:43:22.567Z,25.40
2023-12-05T14:46:26.009Z,36.45
2023-12-05T14:49:32.032Z,24.10
2023-12-05T14:52:36.250Z,36.55
2023-12-05T14:55:42.624Z,22.97
2023-12-05T14:58:47.161Z,28.83
2023-12-05T15:01:53.638Z,24.42
2023-12-05T15:05:17.255Z,34.97
2023-12-05T15:09:12.381Z,26.13
2023-12-05T15:27:14.277Z,28.55
2023-12-05T15:45:21.616Z,30.50
2023-12-05T15:53:44.715Z,32.00
2023-12-05T15:56:52.151Z,31.27
2023-12-05T16:22:29.198Z,31.00
2023-12-05T16:25:32.436Z,33.30
2023-12-05T16:28:36.049Z,30.45
2023-12-05T16:31:40.896Z,34.20
2023-12-05T16:34:47.659Z,30.47
2023-12-05T16:37:51.016Z,30.63
2023-12-05T16:40:58.019Z,30.77
2023-12-05T16:44:01.139Z,31.77
2023-12-05T16:47:04.494Z,32.85
2023-12-05T16:50:11.173Z,33.53
2023-12-05T16:53:14.340Z,29.88
2023-12-05T16:56:17.663Z,29.90
2023-12-05T16:59:31.817Z,32.55
2023-12-05T17:02:37.332Z,29.45
2023-12-05T17:05:42.863Z,34.87
2023-12-05T17:08:46.141Z,27.80
2023-12-05T17:11:49.408Z,37.88
2023-12-05T17:14:54.659Z,33.35
2023-12-05T17:17:57.866Z,33.15
2023-12-05T17:21:03.753Z,31.93
2023-12-05T17:24:08.234Z,28.13
2023-12-05T17:27:11.978Z,41.80
2023-12-05T17:30:15.432Z,28.73
2023-12-05T17:33:19.240Z,26.83
2023-12-05T17:36:25.635Z,28.53
2023-12-05T17:39:30.631Z,27.92
2023-12-05T17:42:34.259Z,28.20
2023-12-05T17:45:38.210Z,32.03
2023-12-05T17:48:41.627Z,28.38
2023-12-05T17:51:47.321Z,34.73
2023-12-05T17:54:51.040Z,29.38
2023-12-05T17:57:54.355Z,24.23
2023-12-05T18:00:58.191Z,26.08
2023-12-05T18:04:02.067Z,27.17
2023-12-05T18:07:50.694Z,28.03
2023-12-05T18:10:31.179Z,28.63
2023-12-05T18:13:34.688Z,24.63
2023-12-05T18:16:38.316Z,24.30
2023-12-05T18:19:44.941Z,23.00
2023-12-05T18:22:54.180Z,33.30
2023-12-05T18:25:57.667Z,28.45
2023-12-05T18:29:00.978Z,30.70
2023-12-05T18:32:04.454Z,34.47
2023-12-05T18:35:08.354Z,34.13
2023-12-05T18:38:14.129Z,31.33
2023-12-05T18:41:20.344Z,28.98
2023-12-05T18:44:26.351Z,28.25
2023-12-05T18:47:31.895Z,30.52
2023-12-05T18:50:35.397Z,34.90
2023-12-05T18:53:43.637Z,27.83
2023-12-05T18:56:47.754Z,28.00
2023-12-05T18:59:51.273Z,32.17
2023-12-05T19:02:56.107Z,29.98
2023-12-05T19:06:00.362Z,26.90
2023-12-05T19:09:05.570Z,43.57
2023-12-05T19:12:10.944Z,30.13
2023-12-05T19:15:15.904Z,30.73
2023-12-05T19:18:19.671Z,33.35
2023-12-05T19:21:22.960Z,32.65
2023-12-05T19:24:27.994Z,35.90
2023-12-05T19:27:32.698Z,31.70
2023-12-05T19:30:41.535Z,31.02
2023-12-05T19:33:50.580Z,30.27
2023-12-05T19:36:53.857Z,32.20
2023-12-05T19:39:58.925Z,33.50
2023-12-05T19:43:05.321Z,34.45
2023-12-05T19:46:10.750Z,31.92
2023-12-05T19:49:14.494Z,34.35
2023-12-05T19:52:18.836Z,47.65
2023-12-05T19:55:23.634Z,35.30
2023-12-05T19:58:27.156Z,32.13
2023-12-05T20:01:33.621Z,30.83
2023-12-05T20:04:36.952Z,35.67
2023-12-05T20:07:40.228Z,34.17
2023-12-05T20:10:45.871Z,32.03
2023-12-05T20:13:51.287Z,35.60
2023-12-05T20:16:54.599Z,35.75
2023-12-05T20:19:58.098Z,31.00
2023-12-05T20:23:02.082Z,43.90
2023-12-05T20:26:06.911Z,33.17
2023-12-05T20:29:10.583Z,38.13
2023-12-05T20:32:13.788Z,33.47
2023-12-05T20:35:17.116Z,34.20
2023-12-05T20:38:20.356Z,35.03
2023-12-05T20:41:25.042Z,37.07
2023-12-05T20:44:28.251Z,31.88
2023-12-05T20:47:31.516Z,33.63
2023-12-05T20:50:34.868Z,33.40
2023-12-05T20:53:38.469Z,36.80
2023-12-05T20:56:43.262Z,35.07
2023-12-05T20:59:46.481Z,33.58
2023-12-05T21:02:49.823Z,29.60
2023-12-05T21:05:53.010Z,36.05
2023-12-05T21:09:11.141Z,32.55
2023-12-05T21:12:18.132Z,33.53
2023-12-05T21:15:21.321Z,33.55
2023-12-05T21:18:28.112Z,30.92
2023-12-05T21:21:31.362Z,30.55
2023-12-05T21:24:38.317Z,30.35
2023-12-05T21:27:43.757Z,30.30
2023-12-05T21:30:47.185Z,28.80
2023-12-05T21:33:50.910Z,31.58
2023-12-05T21:36:54.223Z,30.80
2023-12-05T21:39:57.408Z,28.85
2023-12-05T21:43:04.579Z,29.03
2023-12-05T21:46:08.549Z,31.25
2023-12-05T21:49:12.281Z,38.90
2023-12-05T21:52:15.839Z,32.20
2023-12-05T21:55:19.276Z,33.78
2023-12-05T21:58:24.105Z,34.53
2023-12-05T22:01:31.028Z,35.25
2023-12-05T22:04:35.464Z,33.83
2023-12-05T22:07:52.647Z,33.03
2023-12-05T22:10:57.944Z,30.40
2023-12-05T22:14:02.605Z,35.57
2023-12-05T22:17:05.910Z,33.65
2023-12-05T22:20:10.233Z,37.15
2023-12-05T22:23:14.858Z,34.97
2023-12-05T22:26:21.136Z,33.03
2023-12-05T22:29:25.816Z,35.77
2023-12-05T22:32:32.014Z,34.70
2023-12-05T22:35:35.254Z,34.55
2023-12-05T22:38:38.784Z,33.65
2023-12-05T22:41:44.149Z,33.42
2023-12-05T22:44:49.537Z,32.50
2023-12-05T22:47:52.819Z,34.05
2023-12-05T22:50:56.511Z,35.13
2023-12-05T22:53:59.801Z,35.67
2023-12-05T22:57:06.222Z,37.40
2023-12-05T23:00:14.225Z,35.10
2023-12-05T23:03:17.891Z,39.03
2023-12-05T23:06:22.387Z,38.58
2023-12-05T23:09:26.492Z,38.28
2023-12-05T23:12:29.766Z,34.28
2023-12-05T23:15:34.595Z,45.63
2023-12-05T23:18:37.820Z,36.05
2023-12-05T23:21:41.219Z,39.42
2023-12-05T23:24:44.510Z,39.42
2023-12-05T23:27:47.710Z,38.10
2023-12-05T23:30:52.668Z,38.43
2023-12-05T23:33:56.429Z,39.50
2023-12-05T23:36:59.875Z,36.42
2023-12-05T23:40:03.293Z,35.83
2023-12-05T23:43:06.549Z,40.75
2023-12-05T23:46:11.332Z,39.60
2023-12-05T23:49:14.587Z,38.47
2023-12-05T23:52:18.054Z,41.17
2023-12-05T23:55:21.290Z,40.67
2023-12-05T23:58:38.311Z,36.03
